createdAt,value
2018-03-26T00:02:23.551Z,61.72
2018-03-26T00:04:52.839Z,62.17
2018-03-26T00:07:22.037Z,62.59
2018-03-26T00:09:51.160Z,62.84
2018-03-26T00:12:20.268Z,62.58
2018-03-26T00:14:50.192Z,61.87
2018-03-26T00:17:19.278Z,61.76
2018-03-26T00:19:48.405Z,62.16
2018-03-26T00:22:17.502Z,62.38
2018-03-26T00:24:46.646Z,62.62
2018-03-26T00:27:16.638Z,62.43
2018-03-26T00:29:45.744Z,62.42
2018-03-26T00:32:14.830Z,61.81
2018-03-26T00:34:43.937Z,61.61
2018-03-26T00:37:13.073Z,61.68
2018-03-26T00:39:42.283Z,61.41
2018-03-26T00:42:11.457Z,61.39
2018-03-26T00:44:40.567Z,61.48
2018-03-26T00:47:09.707Z,61.77
2018-03-26T00:49:39.614Z,62.19
2018-03-26T00:52:08.731Z,62.40
2018-03-26T00:54:38.595Z,62.33
2018-03-26T00:57:07.737Z,62.53
2018-03-26T00:59:37.598Z,62.58
2018-03-26T01:02:06.708Z,62.40
2018-03-26T01:04:35.819Z,62.33
2018-03-26T01:07:05.221Z,62.37
2018-03-26T01:09:34.334Z,62.88
2018-03-26T01:12:04.211Z,62.76
2018-03-26T01:14:33.315Z,62.80
2018-03-26T01:17:02.439Z,62.41
2018-03-26T01:19:32.294Z,62.25
2018-03-26T01:22:01.424Z,62.29
2018-03-26T01:24:30.516Z,62.83
2018-03-26T01:26:59.924Z,63.01
2018-03-26T01:29:29.010Z,62.29
2018-03-26T01:31:58.130Z,61.86
2018-03-26T01:34:28.013Z,62.26
2018-03-26T01:36:57.138Z,62.07
2018-03-26T01:39:26.255Z,61.84
2018-03-26T01:41:55.374Z,61.75
2018-03-26T01:44:24.473Z,61.41
2018-03-26T01:46:53.598Z,61.42
2018-03-26T01:49:23.468Z,61.73
2018-03-26T01:51:52.594Z,61.88
2018-03-26T01:54:21.698Z,62.26
2018-03-26T01:56:51.557Z,62.16
2018-03-26T01:59:20.692Z,61.99
2018-03-26T02:01:49.769Z,61.98
2018-03-26T02:04:18.898Z,62.39
2018-03-26T02:06:49.107Z,62.32
2018-03-26T02:09:18.239Z,62.74
2018-03-26T02:11:47.338Z,62.85
2018-03-26T02:14:16.419Z,62.79
2018-03-26T02:16:45.541Z,62.87
2018-03-26T02:19:14.653Z,62.62
2018-03-26T02:21:43.765Z,62.62
2018-03-26T02:24:12.947Z,62.53
2018-03-26T02:26:42.067Z,62.52
2018-03-26T02:29:11.162Z,62.39
2018-03-26T02:31:41.045Z,62.45
2018-03-26T02:34:10.194Z,62.62
2018-03-26T02:36:39.323Z,62.60
2018-03-26T02:39:08.423Z,62.48
2018-03-26T02:41:37.547Z,62.49
2018-03-26T02:44:06.645Z,62.58
2018-03-26T02:46:36.527Z,62.48
2018-03-26T02:49:05.620Z,62.76
2018-03-26T02:51:34.754Z,62.73
2018-03-26T02:54:04.608Z,62.60
2018-03-26T02:56:33.718Z,62.61
2018-03-26T02:59:02.819Z,62.59
2018-03-26T03:01:32.045Z,62.39
2018-03-26T03:04:01.927Z,62.60
2018-03-26T03:06:31.078Z,62.29
2018-03-26T03:09:00.203Z,62.22
2018-03-26T03:11:29.314Z,62.33
2018-03-26T03:13:58.407Z,62.07
2018-03-26T03:16:27.514Z,62.19
2018-03-26T03:18:57.379Z,62.38
2018-03-26T03:21:26.500Z,62.53
2018-03-26T03:23:55.616Z,62.68
2018-03-26T03:26:24.895Z,62.84
2018-03-26T03:28:54.050Z,62.63
2018-03-26T03:31:23.144Z,63.47
2018-03-26T03:33:52.282Z,63.50
2018-03-26T03:36:21.504Z,63.55
2018-03-26T03:38:50.667Z,63.48
2018-03-26T03:41:19.803Z,63.59
2018-03-26T03:43:48.944Z,63.45
2018-03-26T03:46:18.033Z,63.43
2018-03-26T03:48:47.167Z,63.48
2018-03-26T03:51:16.286Z,63.25
2018-03-26T03:53:45.375Z,63.67
2018-03-26T03:56:14.537Z,63.35
2018-03-26T03:58:43.625Z,63.40
2018-03-26T04:01:12.831Z,63.28
2018-03-26T04:03:41.940Z,63.39
2018-03-26T04:06:11.857Z,63.58
2018-03-26T04:08:41.707Z,63.80
2018-03-26T04:11:10.816Z,63.63
2018-03-26T04:13:40.685Z,63.32
2018-03-26T04:16:10.117Z,63.21
2018-03-26T04:18:39.211Z,63.16
2018-03-26T04:21:08.326Z,63.14
2018-03-26T04:23:37.443Z,63.09
2018-03-26T04:26:06.558Z,63.19
2018-03-26T04:28:36.435Z,63.28
2018-03-26T04:31:05.553Z,63.25
2018-03-26T04:33:35.450Z,63.25
2018-03-26T04:36:04.575Z,63.28
2018-03-26T04:38:34.445Z,63.17
2018-03-26T04:41:03.532Z,63.54
2018-03-26T04:43:32.651Z,63.48
2018-03-26T04:46:01.738Z,63.50
2018-03-26T04:48:30.861Z,63.74
2018-03-26T04:51:00.184Z,63.61
2018-03-26T04:53:29.298Z,63.58
2018-03-26T04:55:59.209Z,63.37
2018-03-26T04:58:28.315Z,63.33
2018-03-26T05:00:57.430Z,63.26
2018-03-26T05:03:27.660Z,63.15
2018-03-26T05:05:57.515Z,63.23
2018-03-26T05:08:26.638Z,63.29
2018-03-26T05:10:55.772Z,62.98
2018-03-26T05:13:25.646Z,63.81
2018-03-26T05:15:54.762Z,63.62
2018-03-26T05:18:23.869Z,63.47
2018-03-26T05:20:53.180Z,63.77
2018-03-26T05:23:22.282Z,63.68
2018-03-26T05:25:51.398Z,63.85
2018-03-26T05:28:20.496Z,64.15
2018-03-26T05:30:49.590Z,63.98
2018-03-26T05:33:18.775Z,63.28
2018-03-26T05:35:47.874Z,63.38
2018-03-26T05:38:16.984Z,63.54
2018-03-26T05:40:46.105Z,63.72
2018-03-26T05:43:15.207Z,63.42
2018-03-26T05:45:45.069Z,63.06
2018-03-26T05:48:14.212Z,62.68
2018-03-26T05:50:44.090Z,63.09
2018-03-26T05:53:13.230Z,62.91
2018-03-26T05:55:43.115Z,62.74
2018-03-26T05:58:12.258Z,63.13
2018-03-26T06:00:41.390Z,63.33
2018-03-26T06:03:10.495Z,63.31
2018-03-26T06:05:39.606Z,63.04
2018-03-26T06:08:09.494Z,63.03
2018-03-26T06:10:38.615Z,63.34
2018-03-26T06:13:08.498Z,63.08
2018-03-26T06:15:37.632Z,63.35
2018-03-26T06:18:07.620Z,63.41
2018-03-26T06:20:36.757Z,63.32
2018-03-26T06:23:05.864Z,63.41
2018-03-26T06:25:34.968Z,63.45
2018-03-26T06:28:04.069Z,63.87
2018-03-26T06:30:33.223Z,64.17
2018-03-26T06:33:03.077Z,64.14
2018-03-26T06:38:05.602Z,64.06
2018-03-26T06:40:34.727Z,63.87
2018-03-26T06:43:03.833Z,63.69
2018-03-26T06:45:32.970Z,63.99
2018-03-26T06:48:02.841Z,64.31
2018-03-26T06:50:31.952Z,64.12
2018-03-26T06:53:01.058Z,65.02
2018-03-26T06:55:30.188Z,65.21
2018-03-26T06:58:00.060Z,65.02
2018-03-26T07:00:29.164Z,65.16
2018-03-26T07:02:58.287Z,65.24
2018-03-26T07:05:27.381Z,65.48
2018-03-26T07:07:56.483Z,65.59
2018-03-26T07:10:25.582Z,65.38
2018-03-26T07:12:54.689Z,65.29
2018-03-26T07:15:23.802Z,65.69
2018-03-26T07:17:52.892Z,65.55
2018-03-26T07:20:22.015Z,65.45
2018-03-26T07:22:51.110Z,65.46
2018-03-26T07:25:21.025Z,65.27
2018-03-26T07:27:50.116Z,65.58
2018-03-26T07:30:19.244Z,65.42
2018-03-26T07:32:49.111Z,65.27
2018-03-26T07:35:18.243Z,64.99
2018-03-26T07:37:48.118Z,65.09
2018-03-26T07:40:17.234Z,65.09
2018-03-26T07:42:46.340Z,64.90
2018-03-26T07:45:15.449Z,64.71
2018-03-26T07:47:45.300Z,64.38
2018-03-26T07:50:14.442Z,64.08
2018-03-26T07:52:43.535Z,64.00
2018-03-26T07:55:12.632Z,64.13
2018-03-26T07:57:42.522Z,64.15
2018-03-26T08:00:11.663Z,63.92
2018-03-26T08:02:40.762Z,64.37
2018-03-26T08:05:09.874Z,64.16
2018-03-26T08:07:38.984Z,63.80
2018-03-26T08:10:08.095Z,63.67
2018-03-26T08:12:37.195Z,63.60
2018-03-26T08:15:06.300Z,63.94
2018-03-26T08:17:35.444Z,63.89
2018-03-26T08:20:04.576Z,63.60
2018-03-26T08:22:33.685Z,63.80
2018-03-26T08:25:02.804Z,64.11
2018-03-26T08:27:31.890Z,63.90
2018-03-26T08:30:01.016Z,63.61
2018-03-26T08:32:30.142Z,63.86
2018-03-26T08:34:59.261Z,63.78
2018-03-26T08:37:29.143Z,63.61
2018-03-26T08:39:58.247Z,63.25
2018-03-26T08:42:27.425Z,62.49
2018-03-26T08:44:56.481Z,62.44
2018-03-26T08:47:25.580Z,60.74
2018-03-26T08:49:54.719Z,60.66
2018-03-26T08:52:23.804Z,60.71
2018-03-26T08:54:52.916Z,59.68
2018-03-26T08:57:22.014Z,59.58
2018-03-26T08:59:51.897Z,59.11
2018-03-26T09:02:21.012Z,59.33
2018-03-26T09:04:50.161Z,58.63
2018-03-26T09:07:19.262Z,59.09
2018-03-26T09:09:48.352Z,58.68
2018-03-26T09:12:17.483Z,58.24
2018-03-26T09:14:46.577Z,58.03
2018-03-26T09:17:15.691Z,58.15
2018-03-26T09:19:45.582Z,57.81
2018-03-26T09:22:14.719Z,57.47
2018-03-26T09:24:43.829Z,57.58
2018-03-26T09:27:12.915Z,57.15
2018-03-26T09:29:42.050Z,56.52
2018-03-26T09:32:11.139Z,56.05
2018-03-26T09:34:40.260Z,55.75
2018-03-26T09:37:09.375Z,55.46
2018-03-26T09:39:38.536Z,55.19
2018-03-26T09:42:08.395Z,55.05
2018-03-26T09:44:37.531Z,55.32
2018-03-26T09:47:06.643Z,55.40
2018-03-26T09:49:35.754Z,55.33
2018-03-26T09:52:05.663Z,54.58
2018-03-26T09:54:35.519Z,54.17
2018-03-26T09:57:05.599Z,52.41
2018-03-26T09:59:34.827Z,52.79
2018-03-26T10:02:03.931Z,51.13
2018-03-26T10:04:33.056Z,52.81
2018-03-26T10:07:02.206Z,51.31
2018-03-26T10:09:31.324Z,51.96
2018-03-26T10:12:00.438Z,52.42
2018-03-26T10:14:29.608Z,52.56
2018-03-26T10:16:58.739Z,52.49
2018-03-26T10:19:27.841Z,52.47
2018-03-26T10:21:56.947Z,52.25
2018-03-26T10:24:26.860Z,52.67
2018-03-26T10:26:56.743Z,52.76
2018-03-26T10:29:25.876Z,52.44
2018-03-26T10:31:54.966Z,53.24
2018-03-26T10:34:24.088Z,54.01
2018-03-26T10:36:53.189Z,54.05
2018-03-26T10:39:22.297Z,53.92
2018-03-26T10:41:51.411Z,53.95
2018-03-26T10:44:21.327Z,54.16
2018-03-26T10:46:50.428Z,54.38
2018-03-26T10:49:20.311Z,54.43
2018-03-26T10:51:49.456Z,54.33
2018-03-26T10:54:19.344Z,56.20
2018-03-26T10:56:48.514Z,56.86
2018-03-26T10:59:17.627Z,57.23
2018-03-26T11:01:46.778Z,57.49
2018-03-26T11:04:15.895Z,58.14
2018-03-26T11:06:45.009Z,57.80
2018-03-26T11:09:20.261Z,57.57
2018-03-26T11:11:51.023Z,57.86
2018-03-26T11:14:20.146Z,58.03
2018-03-26T11:16:49.282Z,57.57
2018-03-26T11:19:18.384Z,56.01
2018-03-26T11:21:48.279Z,55.54
2018-03-26T11:24:17.418Z,55.78
2018-03-26T11:26:46.677Z,56.03
2018-03-26T11:29:16.552Z,55.95
2018-03-26T11:31:45.656Z,55.82
2018-03-26T11:34:14.787Z,54.63
2018-03-26T11:36:44.760Z,55.20
2018-03-26T11:39:13.889Z,54.91
2018-03-26T11:41:43.840Z,53.61
2018-03-26T11:44:13.672Z,53.41
2018-03-26T11:46:42.806Z,52.72
2018-03-26T11:49:11.936Z,52.30
2018-03-26T11:51:41.046Z,52.28
2018-03-26T11:54:10.142Z,50.64
2018-03-26T11:56:39.256Z,51.20
2018-03-26T11:59:08.382Z,52.16
2018-03-26T12:01:38.312Z,52.23
2018-03-26T12:04:07.515Z,52.45
2018-03-26T12:06:36.654Z,53.06
2018-03-26T12:09:06.528Z,53.32
2018-03-26T12:11:36.477Z,52.32
2018-03-26T12:14:05.621Z,52.85
2018-03-26T12:16:34.740Z,51.78
2018-03-26T12:19:03.849Z,52.04
2018-03-26T12:21:32.964Z,51.32
2018-03-26T12:24:19.740Z,51.31
2018-03-26T12:26:48.850Z,51.21
2018-03-26T12:29:36.168Z,50.67
2018-03-26T12:32:05.277Z,51.92
2018-03-26T12:34:51.867Z,51.48
2018-03-26T12:37:20.974Z,50.94
2018-03-26T12:39:50.114Z,49.49
2018-03-26T12:42:19.211Z,48.79
2018-03-26T12:45:05.879Z,48.58
2018-03-26T12:47:35.006Z,48.44
2018-03-26T12:50:04.133Z,48.92
2018-03-26T12:52:47.676Z,47.72
2018-03-26T12:55:16.807Z,47.97
2018-03-26T12:58:03.457Z,47.61
2018-03-26T13:00:32.587Z,47.58
2018-03-26T13:03:01.745Z,47.49
2018-03-26T13:05:30.857Z,47.59
2018-03-26T13:08:00.019Z,46.79
2018-03-26T13:10:29.130Z,46.72
2018-03-26T13:12:58.235Z,46.99
2018-03-26T13:15:27.365Z,46.46
2018-03-26T13:17:56.460Z,46.32
2018-03-26T13:20:26.365Z,46.73
2018-03-26T13:22:56.238Z,46.69
2018-03-26T13:25:25.370Z,47.29
2018-03-26T13:27:54.497Z,47.76
2018-03-26T13:30:24.412Z,47.82
2018-03-26T13:32:54.309Z,47.52
2018-03-26T13:35:23.468Z,48.00
2018-03-26T13:37:52.586Z,47.64
2018-03-26T13:40:22.479Z,47.43
2018-03-26T13:42:51.607Z,48.05
2018-03-26T13:45:21.473Z,47.29
2018-03-26T13:47:50.591Z,47.29
2018-03-26T13:50:19.707Z,47.68
2018-03-26T13:52:49.619Z,47.86
2018-03-26T13:55:19.486Z,48.21
2018-03-26T13:57:48.663Z,46.71
2018-03-26T14:00:17.762Z,46.81
2018-03-26T14:02:46.884Z,46.78
2018-03-26T14:05:15.994Z,46.84
2018-03-26T14:07:45.115Z,45.63
2018-03-26T14:10:31.895Z,44.98
2018-03-26T14:13:18.681Z,44.28
2018-03-26T14:16:05.374Z,44.11
2018-03-26T14:18:34.486Z,43.82
2018-03-26T14:21:03.631Z,42.92
2018-03-26T14:23:32.752Z,42.51
2018-03-26T14:26:01.887Z,41.77
2018-03-26T14:28:31.016Z,42.87
2018-03-26T14:31:00.119Z,41.85
2018-03-26T14:33:29.590Z,41.19
2018-03-26T14:35:59.472Z,40.74
2018-03-26T14:38:28.628Z,38.17
2018-03-26T14:40:57.730Z,37.61
2018-03-26T14:43:26.868Z,35.98
2018-03-26T14:45:56.024Z,35.43
2018-03-26T14:48:25.163Z,31.92
2018-03-26T14:50:54.295Z,28.94
2018-03-26T14:53:23.425Z,28.87
2018-03-26T14:55:52.550Z,30.45
2018-03-26T14:58:21.704Z,32.13
2018-03-26T15:00:50.828Z,33.36
2018-03-26T15:03:19.944Z,33.74
2018-03-26T15:05:49.849Z,34.86
2018-03-26T15:08:19.754Z,34.60
2018-03-26T15:10:49.702Z,34.30
2018-03-26T15:13:18.860Z,34.53
2018-03-26T15:15:47.991Z,34.59
2018-03-26T15:18:17.140Z,35.21
2018-03-26T15:20:47.017Z,35.55
2018-03-26T15:23:19.240Z,36.13
2018-03-26T15:25:48.416Z,36.79
2018-03-26T15:28:17.570Z,36.51
2018-03-26T15:30:46.681Z,35.51
2018-03-26T15:33:15.892Z,33.30
2018-03-26T15:35:44.987Z,30.90
2018-03-26T15:38:14.328Z,28.86
2018-03-26T15:40:44.203Z,27.49
2018-03-26T15:43:13.305Z,28.49
2018-03-26T15:45:43.246Z,30.17
2018-03-26T15:48:12.364Z,28.86
2018-03-26T15:50:41.508Z,28.18
2018-03-26T15:53:10.645Z,30.20
2018-03-26T15:55:39.791Z,33.13
2018-03-26T15:58:08.893Z,33.77
2018-03-26T16:00:38.044Z,34.88
2018-03-26T16:03:12.597Z,36.05
2018-03-26T16:05:41.722Z,37.12
2018-03-26T16:08:11.750Z,38.67
2018-03-26T16:10:41.622Z,38.82
2018-03-26T16:13:10.774Z,40.08
2018-03-26T16:15:39.906Z,40.95
2018-03-26T16:18:09.032Z,41.34
2018-03-26T16:20:38.936Z,41.80
2018-03-26T16:23:08.087Z,42.53
2018-03-26T16:25:37.190Z,42.60
2018-03-26T16:28:06.356Z,43.72
2018-03-26T16:30:35.505Z,44.44
2018-03-26T16:33:04.628Z,45.05
2018-03-26T16:35:38.080Z,45.20
2018-03-26T16:38:07.260Z,45.03
2018-03-26T16:40:36.392Z,45.62
2018-03-26T16:43:06.376Z,45.72
2018-03-26T16:45:35.605Z,45.69
2018-03-26T16:48:04.735Z,46.06
2018-03-26T16:50:33.951Z,46.75
2018-03-26T16:53:03.090Z,47.51
2018-03-26T16:55:32.241Z,46.89
2018-03-26T16:58:01.383Z,47.69
2018-03-26T17:00:31.294Z,47.19
2018-03-26T17:03:00.424Z,46.77
2018-03-26T17:05:30.247Z,46.24
2018-03-26T17:07:59.338Z,46.31
2018-03-26T17:10:28.474Z,46.60
2018-03-26T17:12:57.633Z,46.49
2018-03-26T17:15:26.746Z,46.95
2018-03-26T17:17:55.890Z,46.87
2018-03-26T17:20:25.777Z,46.70
2018-03-26T17:22:54.920Z,47.26
2018-03-26T17:25:24.042Z,46.55
2018-03-26T17:27:53.155Z,46.64
2018-03-26T17:30:22.287Z,46.78
2018-03-26T17:32:51.431Z,46.55
2018-03-26T17:35:20.522Z,46.41
2018-03-26T17:37:49.688Z,46.72
2018-03-26T17:40:18.816Z,47.69
2018-03-26T17:42:47.958Z,47.76
2018-03-26T17:45:17.108Z,47.98
2018-03-26T17:47:46.961Z,48.33
2018-03-26T17:50:16.101Z,49.52
2018-03-26T17:52:45.246Z,50.40
2018-03-26T17:55:15.139Z,51.24
2018-03-26T17:57:44.299Z,51.62
2018-03-26T18:00:13.378Z,52.37
2018-03-26T18:02:42.574Z,52.80
2018-03-26T18:05:13.257Z,52.99
2018-03-26T18:07:42.374Z,53.23
2018-03-26T18:10:11.770Z,54.19
2018-03-26T18:12:41.675Z,53.70
2018-03-26T18:15:10.818Z,52.98
2018-03-26T18:17:40.480Z,53.71
2018-03-26T18:20:10.352Z,54.63
2018-03-26T18:22:41.078Z,56.25
2018-03-26T18:25:10.273Z,57.58
2018-03-26T18:27:39.427Z,57.30
2018-03-26T18:30:09.344Z,57.59
2018-03-26T18:32:38.518Z,57.26
2018-03-26T18:35:08.421Z,57.29
2018-03-26T18:37:37.564Z,59.01
2018-03-26T18:40:06.709Z,60.94
2018-03-26T18:42:35.848Z,63.25
2018-03-26T18:45:04.957Z,64.91
2018-03-26T18:47:34.092Z,65.51
2018-03-26T18:50:03.256Z,66.21
2018-03-26T18:52:32.374Z,66.54
2018-03-26T18:55:02.295Z,66.90
2018-03-26T18:57:32.206Z,66.98
2018-03-26T19:00:01.336Z,67.57
2018-03-26T19:02:30.472Z,68.18
2018-03-26T19:04:59.649Z,68.54
2018-03-26T19:07:28.803Z,69.23
2018-03-26T19:09:58.752Z,69.66
2018-03-26T19:12:27.945Z,70.21
2018-03-26T19:14:57.101Z,70.49
2018-03-26T19:17:26.242Z,70.71
2018-03-26T19:19:55.382Z,71.26
2018-03-26T19:22:24.513Z,71.63
2018-03-26T19:24:54.477Z,72.06
2018-03-26T19:27:23.619Z,71.68
2018-03-26T19:29:53.531Z,72.04
2018-03-26T19:32:22.659Z,71.93
2018-03-26T19:34:51.897Z,71.93
2018-03-26T19:37:21.072Z,71.62
2018-03-26T19:39:50.196Z,71.36
2018-03-26T19:42:19.368Z,71.56
2018-03-26T19:44:48.551Z,71.29
2018-03-26T19:47:18.443Z,71.65
2018-03-26T19:49:47.589Z,71.46
2018-03-26T19:52:17.491Z,71.62
2018-03-26T19:54:46.613Z,71.78
2018-03-26T19:57:15.744Z,71.72
2018-03-26T19:59:44.926Z,71.78
2018-03-26T20:02:14.084Z,72.00
2018-03-26T20:04:43.208Z,72.19
2018-03-26T20:07:12.360Z,72.23
2018-03-26T20:09:41.481Z,72.21
2018-03-26T20:12:10.671Z,72.38
2018-03-26T20:14:39.818Z,72.61
2018-03-26T20:17:08.944Z,72.72
2018-03-26T20:19:38.080Z,72.71
2018-03-26T20:22:07.216Z,72.53
2018-03-26T20:24:36.344Z,72.28
2018-03-26T20:27:06.230Z,72.03
2018-03-26T20:29:35.341Z,72.12
2018-03-26T20:32:05.261Z,72.08
2018-03-26T20:34:35.289Z,71.88
2018-03-26T20:37:04.408Z,72.05
2018-03-26T20:39:33.529Z,71.57
2018-03-26T20:42:02.663Z,71.83
2018-03-26T20:44:33.827Z,71.71
2018-03-26T20:47:03.880Z,71.47
2018-03-26T20:49:33.839Z,71.64
2018-03-26T20:52:02.978Z,71.50
2018-03-26T20:54:33.267Z,71.27
2018-03-26T20:57:02.453Z,71.89
2018-03-26T20:59:31.617Z,72.03
2018-03-26T21:02:01.496Z,72.57
2018-03-26T21:04:31.016Z,72.66
2018-03-26T21:07:00.181Z,72.77
2018-03-26T21:09:30.286Z,72.52
2018-03-26T21:12:01.042Z,72.41
2018-03-26T21:14:30.205Z,72.80
2018-03-26T21:16:59.372Z,72.48
2018-03-26T21:19:28.985Z,72.33
2018-03-26T21:21:58.099Z,72.40
2018-03-26T21:24:28.021Z,72.47
2018-03-26T21:26:57.353Z,72.39
2018-03-26T21:29:26.538Z,72.24
2018-03-26T21:31:55.743Z,72.05
2018-03-26T21:34:24.871Z,72.29
2018-03-26T21:36:55.027Z,72.26
2018-03-26T21:39:24.208Z,72.32
2018-03-26T21:41:54.051Z,72.16
2018-03-26T21:44:23.157Z,72.09
2018-03-26T21:46:52.251Z,72.56
2018-03-26T21:49:21.796Z,72.85
2018-03-26T21:51:51.096Z,73.20
2018-03-26T21:54:20.305Z,73.01
2018-03-26T21:56:50.198Z,72.93
2018-03-26T21:59:20.122Z,72.90
2018-03-26T22:01:50.170Z,73.47
2018-03-26T22:04:19.417Z,73.58
2018-03-26T22:06:48.544Z,73.54
2018-03-26T22:09:17.680Z,73.71
2018-03-26T22:11:46.807Z,73.53
2018-03-26T22:14:16.155Z,73.75
2018-03-26T22:16:45.267Z,74.04
2018-03-26T22:19:14.416Z,74.13
2018-03-26T22:21:43.677Z,74.34
2018-03-26T22:24:12.823Z,74.09
2018-03-26T22:26:41.930Z,73.98
2018-03-26T22:29:11.143Z,74.18
2018-03-26T22:31:41.009Z,74.42
2018-03-26T22:34:11.000Z,74.40
2018-03-26T22:36:40.107Z,74.72
2018-03-26T22:39:09.259Z,74.92
2018-03-26T22:41:38.397Z,74.66
2018-03-26T22:44:08.313Z,73.99
2018-03-26T22:46:38.285Z,73.57
2018-03-26T22:49:07.488Z,73.35
2018-03-26T22:51:36.707Z,73.43
2018-03-26T22:54:05.830Z,73.43
2018-03-26T22:56:35.018Z,73.89
2018-03-26T22:59:04.973Z,73.48
2018-03-26T23:01:34.101Z,73.00
2018-03-26T23:04:03.230Z,73.42
2018-03-26T23:06:32.364Z,73.68
2018-03-26T23:09:01.791Z,73.72
2018-03-26T23:11:30.903Z,73.77
2018-03-26T23:14:02.014Z,74.00
2018-03-26T23:16:31.136Z,73.94
2018-03-26T23:19:02.305Z,73.76
2018-03-26T23:21:31.417Z,73.68
2018-03-26T23:24:01.794Z,74.22
2018-03-26T23:26:30.899Z,74.08
2018-03-26T23:28:59.995Z,74.60
2018-03-26T23:31:29.118Z,75.27
2018-03-26T23:33:58.251Z,74.67
2018-03-26T23:36:27.330Z,74.26
2018-03-26T23:38:56.449Z,74.30
2018-03-26T23:41:25.550Z,74.18
2018-03-26T23:43:55.459Z,73.88
2018-03-26T23:46:24.563Z,73.43
2018-03-26T23:48:54.435Z,72.95
2018-03-26T23:51:23.555Z,73.10
2018-03-26T23:53:52.678Z,72.65
2018-03-26T23:56:21.755Z,73.17
2018-03-26T23:58:51.676Z,73.63
